Time;durP1;ratioP1;P1;durP2;ratioP2;P2;SDS_P1;SDS_P2;PMS_P1;PMS_P2;Temp;Humidity;BMP_temperature;BMP_pressure;BME280_temperature;BME280_humidity;BME280_pressure;Samples;Min_cycle;Max_cycle;Signal;HPM_P1;HPM_P2
2024/01/24 00:01:32;;;;;;;18.17;11.55;;;;;;;4.78;53.34;102410.50;5074363;28;20055;-78
2024/01/24 00:04:26;;;;;;;18.45;10.00;;;;;;;4.86;53.13;102406.66;5071970;28;20423;-78
2024/01/24 00:07:21;;;;;;;22.27;10.02;;;;;;;4.96;52.74;102418.47;5071519;28;20421;-79
2024/01/24 00:10:15;;;;;;;18.35;10.45;;;;;;;4.82;52.23;102397.41;5073659;28;20390;-78
2024/01/24 00:13:10;;;;;;;14.40;7.57;;;;;;;4.93;53.00;102405.44;5071274;28;20059;-77
2024/01/24 00:16:04;;;;;;;18.63;10.83;;;;;;;5.01;52.43;102402.41;5074104;28;20401;-78
2024/01/24 00:18:59;;;;;;;16.95;10.25;;;;;;;4.83;52.91;102417.88;5072153;28;20048;-79
2024/01/24 00:21:54;;;;;;;21.80;10.27;;;;;;;4.63;53.80;102423.63;5077976;28;20055;-79
2024/01/24 00:24:48;;;;;;;16.90;10.15;;;;;;;4.88;53.90;102421.50;5073059;28;20047;-78
2024/01/24 00:27:43;;;;;;;18.35;9.75;;;;;;;4.95;52.97;102416.81;5071289;28;20043;-79
2024/01/24 00:30:37;;;;;;;20.70;10.32;;;;;;;4.96;53.66;102404.16;5074361;28;20413;-81
2024/01/24 00:33:32;;;;;;;20.60;11.48;;;;;;;4.95;53.26;102405.22;5072270;28;20543;-78
2024/01/24 00:36:27;;;;;;;12.13;7.25;;;;;;;4.86;54.00;102412.03;5073301;28;20047;-77
2024/01/24 00:39:19;;;;;;;17.50;10.73;;;;;;;4.58;53.71;102408.16;5073068;28;20539;-80
2024/01/24 00:42:13;;;;;;;15.73;10.75;;;;;;;4.71;54.10;102388.25;5071151;28;20044;-80
2024/01/24 00:45:05;;;;;;;24.58;12.40;;;;;;;4.93;53.45;102399.22;5073859;28;20052;-80
2024/01/24 00:47:57;;;;;;;29.58;16.40;;;;;;;5.09;53.74;102388.56;5092273;28;20063;-79
2024/01/24 00:50:52;;;;;;;21.60;12.98;;;;;;;5.08;53.67;102389.59;5097360;28;20039;-77
2024/01/24 00:53:50;;;;;;;13.73;8.77;;;;;;;5.07;53.55;102392.56;5098294;28;20400;-77
2024/01/24 00:56:41;;;;;;;26.88;12.40;;;;;;;5.03;53.71;102367.09;5095276;28;20055;-79
2024/01/24 00:59:36;;;;;;;13.02;8.98;;;;;;;5.09;54.16;102355.38;5098958;28;20047;-80
2024/01/24 01:02:30;;;;;;;18.10;11.23;;;;;;;4.90;54.46;102368.19;5096893;28;20043;-79
2024/01/24 01:05:25;;;;;;;24.08;12.88;;;;;;;4.86;55.13;102375.13;5099689;28;20055;-77
2024/01/24 01:08:19;;;;;;;32.00;12.52;;;;;;;4.54;55.80;102377.34;5097782;28;20047;-77
2024/01/24 01:11:12;;;;;;;19.05;9.90;;;;;;;4.70;55.00;102378.53;5095731;28;20055;-80
2024/01/24 01:14:07;;;;;;;27.27;13.45;;;;;;;4.38;56.28;102391.50;5098926;28;20047;-78
2024/01/24 01:17:01;;;;;;;21.83;13.75;;;;;;;4.46;56.61;102384.97;5095796;28;20043;-77
2024/01/24 01:19:56;;;;;;;21.47;9.57;;;;;;;4.58;56.28;102397.38;5099829;28;20039;-78
2024/01/24 01:22:50;;;;;;;22.50;12.65;;;;;;;4.72;55.69;102379.13;5097989;28;20074;-81
2024/01/24 01:25:42;;;;;;;20.38;11.68;;;;;;;4.83;55.65;102355.88;5095067;28;20051;-79
2024/01/24 01:28:37;;;;;;;21.48;11.35;;;;;;;4.80;54.57;102349.13;5099283;28;20668;-79
2024/01/24 01:31:29;;;;;;;14.68;7.20;;;;;;;4.65;54.29;102356.88;5096560;28;20043;-80
2024/01/24 01:34:24;;;;;;;13.43;8.32;;;;;;;4.83;53.91;102363.97;5093925;28;20055;-80
2024/01/24 01:37:16;;;;;;;17.17;8.95;;;;;;;4.79;53.53;102350.16;5094896;28;20051;-80
2024/01/24 01:40:11;;;;;;;11.20;7.10;;;;;;;4.71;53.46;102351.34;5095675;28;20054;-79
2024/01/24 01:43:10;;;;;;;12.82;7.53;;;;;;;4.92;53.29;102344.53;5098759;28;20435;-79
2024/01/24 01:46:07;;;;;;;22.65;10.60;;;;;;;4.96;53.41;102351.09;5096280;28;20539;-80
2024/01/24 01:49:03;;;;;;;18.58;11.15;;;;;;;5.13;53.18;102354.66;5093938;28;20043;-80
2024/01/24 01:51:57;;;;;;;15.77;10.75;;;;;;;5.12;53.45;102353.03;5097464;28;20051;-78
2024/01/24 01:54:50;;;;;;;17.48;11.52;;;;;;;5.12;54.01;102360.31;5094692;28;20043;-77
2024/01/24 01:57:54;;;;;;;22.77;10.57;;;;;;;4.76;54.64;102363.28;5098257;28;20047;-79
2024/01/24 02:00:50;;;;;;;17.35;11.43;;;;;;;4.45;56.33;102356.41;5095335;28;20141;-80
2024/01/24 02:03:45;;;;;;;24.75;12.55;;;;;;;4.59;56.81;102331.69;5098007;28;20409;-79
2024/01/24 02:06:40;;;;;;;16.63;9.35;;;;;;;4.46;56.12;102318.47;5080269;28;20051;-79
2024/01/24 02:09:35;;;;;;;14.25;8.50;;;;;;;4.48;56.57;102315.50;5094273;28;20074;-81
2024/01/24 02:12:25;;;;;;;;;;;;;;;4.83;55.38;102327.06;5098021;28;20063;-79
2024/01/24 02:15:12;;;;;;;19.02;12.30;;;;;;;4.79;55.67;102323.22;5095045;28;19916;-81
2024/01/24 02:18:06;;;;;;;23.42;12.45;;;;;;;4.65;55.17;102332.63;5093681;28;20047;-78
2024/01/24 02:21:01;;;;;;;16.93;9.63;;;;;;;4.60;56.30;102344.09;5097066;28;20047;-79
2024/01/24 02:23:56;;;;;;;25.15;11.23;;;;;;;4.37;56.99;102359.44;5094987;28;20579;-77
2024/01/24 02:26:51;;;;;;;17.52;9.25;;;;;;;4.45;56.81;102353.69;5094842;28;20043;-77
2024/01/24 02:29:45;;;;;;;16.70;10.23;;;;;;;4.12;57.76;102333.53;5096211;28;20043;-76
2024/01/24 02:32:40;;;;;;;13.88;8.40;;;;;;;4.14;57.72;102323.38;5093604;28;20658;-77
2024/01/24 02:35:29;;;;;;;22.38;10.93;;;;;;;4.55;56.93;102313.53;5096423;28;20519;-77
2024/01/24 02:38:24;;;;;;;17.42;10.45;;;;;;;4.31;56.42;102304.66;5094998;28;20058;-78
2024/01/24 02:41:19;;;;;;;15.10;8.15;;;;;;;4.56;55.78;102296.31;5098167;28;20401;-77
2024/01/24 02:44:14;;;;;;;17.63;10.93;;;;;;;4.70;56.08;102306.59;5095902;28;20059;-77
2024/01/24 02:47:08;;;;;;;21.20;12.43;;;;;;;4.82;55.24;102300.38;5093475;28;20039;-76
2024/01/24 02:50:03;;;;;;;11.48;7.75;;;;;;;4.75;55.14;102297.81;5096883;28;20067;-78
2024/01/24 02:52:58;;;;;;;15.38;8.70;;;;;;;4.38;55.39;102297.25;5094693;28;20047;-79
2024/01/24 02:55:52;;;;;;;16.50;9.57;;;;;;;4.51;54.69;102294.34;5097243;28;20043;-78
2024/01/24 02:58:44;;;;;;;13.77;6.93;;;;;;;4.59;54.24;102290.44;5095948;28;20059;-79
2024/01/24 03:01:39;;;;;;;15.15;8.40;;;;;;;4.46;54.43;102291.53;5093011;28;20051;-79
2024/01/24 03:04:31;;;;;;;14.98;7.78;;;;;;;4.32;54.00;102280.16;5096283;28;20047;-77
2024/01/24 03:07:26;;;;;;;19.75;8.75;;;;;;;4.15;54.25;102271.19;5092528;28;20074;-77
2024/01/24 03:10:20;;;;;;;14.73;7.97;;;;;;;3.84;55.22;102272.31;5097915;28;20089;-77
2024/01/24 03:13:18;;;;;;;24.42;9.93;;;;;;;3.96;55.75;102264.28;5095178;28;20067;-78
2024/01/24 03:16:12;;;;;;;15.90;9.25;;;;;;;3.79;56.71;102256.06;5092646;28;20405;-76
2024/01/24 03:19:07;;;;;;;19.73;8.20;;;;;;;3.72;56.71;102259.88;5096566;28;20050;-77
2024/01/24 03:22:07;;;;;;;12.00;7.28;;;;;;;3.65;56.60;102276.16;5094327;28;20051;-78
2024/01/24 03:25:00;;;;;;;13.50;8.35;;;;;;;3.41;57.52;102269.06;5097145;28;20051;-78
2024/01/24 03:27:55;;;;;;;12.38;8.00;;;;;;;3.46;57.06;102261.13;5096054;28;20147;-79
2024/01/24 03:30:47;;;;;;;10.13;6.83;;;;;;;3.57;56.69;102256.81;5093532;28;20039;-77
2024/01/24 03:33:42;;;;;;;17.27;9.18;;;;;;;3.81;55.96;102275.47;5096852;28;20055;-76
2024/01/24 03:36:36;;;;;;;11.10;5.90;;;;;;;3.71;56.89;102275.22;5094498;28;20059;-77
2024/01/24 03:39:29;;;;;;;11.70;6.78;;;;;;;3.90;56.55;102270.56;5098182;28;20075;-78
2024/01/24 03:42:24;;;;;;;17.25;9.20;;;;;;;3.72;56.53;102281.41;5095510;28;20047;-79
2024/01/24 03:45:18;;;;;;;18.65;9.82;;;;;;;3.21;58.13;102265.81;5092603;28;20047;-77
2024/01/24 03:48:13;;;;;;;14.48;6.53;;;;;;;3.39;57.84;102265.78;5096779;28;20062;-77
2024/01/24 03:51:09;;;;;;;16.00;7.43;;;;;;;3.68;57.33;102258.72;5094656;28;20050;-79
2024/01/24 03:54:03;;;;;;;13.45;6.90;;;;;;;3.57;57.33;102257.63;5097911;28;20051;-78
2024/01/24 03:56:58;;;;;;;9.45;6.32;;;;;;;3.83;56.41;102254.53;5093635;28;20043;-79
2024/01/24 03:59:50;;;;;;;16.10;8.38;;;;;;;3.68;56.96;102261.41;5092821;28;20046;-75
2024/01/24 04:02:44;;;;;;;13.88;7.60;;;;;;;3.48;57.01;102252.81;5097139;28;20047;-78
2024/01/24 04:05:39;;;;;;;13.20;8.10;;;;;;;3.88;56.33;102249.28;5093537;28;20051;-76
2024/01/24 04:08:33;;;;;;;15.00;9.35;;;;;;;3.78;57.78;102245.50;5092076;28;20047;-76
2024/01/24 04:11:28;;;;;;;12.77;6.37;;;;;;;3.63;58.26;102243.28;5086634;28;20047;-77
2024/01/24 04:14:23;;;;;;;15.18;8.60;;;;;;;3.77;57.85;102230.41;5089913;28;20074;-78
2024/01/24 04:17:17;;;;;;;16.73;8.52;;;;;;;3.76;57.65;102240.34;5091961;28;20047;-77
2024/01/24 04:20:10;;;;;;;15.63;8.45;;;;;;;3.79;57.43;102222.94;5091791;28;20046;-78
2024/01/24 04:23:02;;;;;;;15.25;8.82;;;;;;;4.03;56.75;102229.97;5087220;28;20050;-79
2024/01/24 04:25:54;;;;;;;14.57;7.97;;;;;;;3.97;56.74;102228.22;5092387;28;20043;-79
2024/01/24 04:28:49;;;;;;;14.85;8.40;;;;;;;4.03;57.17;102221.91;5096668;28;20055;-79
2024/01/24 04:31:43;;;;;;;12.40;8.13;;;;;;;3.71;58.55;102217.91;5097998;28;20055;-77
2024/01/24 04:34:38;;;;;;;12.85;6.72;;;;;;;3.52;59.13;102227.94;5091952;28;20047;-78
2024/01/24 04:37:33;;;;;;;16.02;8.32;;;;;;;3.51;58.28;102220.09;5086582;28;20035;-79
2024/01/24 04:40:25;;;;;;;12.38;8.07;;;;;;;3.59;58.67;102225.16;5093711;28;20515;-77
2024/01/24 04:43:19;;;;;;;13.00;7.93;;;;;;;3.49;57.70;102219.50;5090905;28;20137;-79
2024/01/24 04:46:21;;;;;;;12.88;7.03;;;;;;;3.77;56.88;102219.66;5094106;28;20051;-76
2024/01/24 04:49:13;;;;;;;14.30;8.25;;;;;;;4.00;56.10;102208.09;5092134;28;20404;-77
2024/01/24 04:52:07;;;;;;;13.05;7.68;;;;;;;4.05;55.67;102205.53;5095739;28;20055;-77
2024/01/24 04:55:02;;;;;;;32.38;9.32;;;;;;;4.06;56.91;102228.69;5093023;28;20400;-78
2024/01/24 04:57:56;;;;;;;12.85;7.60;;;;;;;4.23;55.88;102219.66;5089506;28;20051;-78
2024/01/24 05:00:51;;;;;;;16.08;8.85;;;;;;;4.14;55.64;102220.25;5086980;28;20606;-77
2024/01/24 05:03:45;;;;;;;10.03;5.27;;;;;;;4.08;55.68;102223.88;5090799;28;20047;-78
2024/01/24 05:06:39;;;;;;;;;;;;;;;4.07;56.13;102228.44;5090437;28;20432;-78
2024/01/24 05:09:31;;;;;;;14.23;7.43;;;;;;;3.97;56.31;102236.28;5092327;28;19916;-78
2024/01/24 05:12:23;;;;;;;14.38;7.28;;;;;;;4.09;56.19;102234.41;5088906;28;20039;-78
2024/01/24 05:15:15;;;;;;;13.48;7.25;;;;;;;4.19;55.91;102226.56;5096349;28;20043;-78
2024/01/24 05:18:10;;;;;;;14.73;7.32;;;;;;;4.23;56.57;102211.56;5095462;28;20039;-76
2024/01/24 05:21:04;;;;;;;15.60;7.68;;;;;;;4.17;56.65;102209.00;5092934;28;20047;-77
2024/01/24 05:23:59;;;;;;;13.02;7.45;;;;;;;4.30;56.57;102204.22;5095321;28;20039;-77
2024/01/24 05:26:53;;;;;;;15.88;8.40;;;;;;;4.26;55.99;102186.06;5093595;28;20063;-76
2024/01/24 05:29:48;;;;;;;9.10;5.68;;;;;;;4.25;55.98;102185.25;5094947;28;20039;-77
2024/01/24 05:32:43;;;;;;;12.73;7.43;;;;;;;4.26;55.71;102184.19;5098152;28;20067;-78
2024/01/24 05:35:35;;;;;;;16.50;8.23;;;;;;;4.00;56.36;102187.38;5100642;28;20047;-78
2024/01/24 05:38:29;;;;;;;17.73;8.57;;;;;;;3.81;57.08;102189.38;5099571;28;20047;-76
2024/01/24 05:41:24;;;;;;;20.02;7.70;;;;;;;3.70;57.53;102198.28;5101699;28;20043;-77
2024/01/24 05:44:23;;;;;;;17.83;7.88;;;;;;;3.30;58.72;102187.31;5099213;28;20047;-77
2024/01/24 05:47:16;;;;;;;84.47;42.70;;;;;;;3.30;59.49;102181.94;5095603;28;20047;-77
2024/01/24 05:50:17;;;;;;;19.95;11.43;;;;;;;3.38;59.86;102188.88;5100189;28;20055;-79
2024/01/24 05:53:09;;;;;;;17.65;10.80;;;;;;;3.41;59.43;102194.59;5097901;28;20059;-79
2024/01/24 05:56:03;;;;;;;28.33;14.20;;;;;;;3.73;58.60;102196.97;5093879;28;20424;-77
2024/01/24 05:58:56;;;;;;;17.02;8.57;;;;;;;3.20;59.00;102205.09;5099807;28;20047;-76
2024/01/24 06:01:50;;;;;;;19.00;11.27;;;;;;;3.43;58.66;102192.50;5097617;28;20798;-77
2024/01/24 06:04:43;;;;;;;17.15;11.02;;;;;;;3.29;58.56;102195.63;5100254;28;20067;-76
2024/01/24 06:07:38;;;;;;;25.15;11.30;;;;;;;3.68;58.14;102205.75;5101656;28;20500;-76
2024/01/24 06:10:32;;;;;;;12.43;6.72;;;;;;;3.43;58.57;102207.81;5095087;28;20531;-76
2024/01/24 06:13:27;;;;;;;13.23;6.93;;;;;;;3.65;57.98;102208.09;5096186;28;20039;-77
2024/01/24 06:16:21;;;;;;;17.67;8.07;;;;;;;3.27;58.71;102209.28;5094824;28;20047;-77
2024/01/24 06:19:16;;;;;;;12.90;9.05;;;;;;;3.60;58.08;102210.66;5094109;28;20051;-77
2024/01/24 06:22:10;;;;;;;43.78;15.85;;;;;;;3.67;57.80;102206.78;5091338;28;20527;-78
2024/01/24 06:25:05;;;;;;;16.63;7.78;;;;;;;3.91;57.40;102204.13;5097271;28;20051;-77
2024/01/24 06:27:58;;;;;;;29.63;9.20;;;;;;;3.92;56.85;102197.66;5102392;28;20043;-78
2024/01/24 06:30:52;;;;;;;27.13;11.27;;;;;;;3.91;57.63;102201.44;5097982;28;20050;-78
2024/01/24 06:33:47;;;;;;;16.80;8.18;;;;;;;3.83;57.44;102206.09;5093206;28;20058;-77
2024/01/24 06:36:41;;;;;;;21.27;7.68;;;;;;;3.52;58.13;102208.28;5095700;28;20058;-78
2024/01/24 06:39:36;;;;;;;11.13;6.23;;;;;;;3.21;58.69;102207.50;5093933;28;20405;-78
2024/01/24 06:42:31;;;;;;;22.42;11.23;;;;;;;3.37;58.49;102209.56;5098266;28;20519;-78
2024/01/24 06:45:25;;;;;;;21.50;7.32;;;;;;;3.58;58.01;102218.94;5095167;28;20047;-78
2024/01/24 06:48:18;;;;;;;34.80;9.05;;;;;;;3.77;57.74;102219.66;5092943;28;20047;-78
2024/01/24 06:51:12;;;;;;;25.63;7.35;;;;;;;3.52;58.45;102211.81;5089798;28;20051;-78
2024/01/24 06:54:07;;;;;;;25.90;8.77;;;;;;;3.51;58.49;102217.41;5090121;28;20047;-76
2024/01/24 06:57:01;;;;;;;20.10;7.88;;;;;;;3.49;58.55;102209.59;5090198;28;20043;-78
2024/01/24 06:59:54;;;;;;;18.40;6.30;;;;;;;3.29;59.17;102217.97;5092337;28;20059;-78
2024/01/24 07:02:48;;;;;;;30.13;8.07;;;;;;;3.21;58.82;102210.22;5088816;28;20254;-78
2024/01/24 07:05:43;;;;;;;11.20;6.10;;;;;;;3.12;59.32;102214.28;5089749;28;20054;-78
2024/01/24 07:08:39;;;;;;;18.98;7.50;;;;;;;3.00;60.22;102208.03;5093621;28;20051;-76
2024/01/24 07:11:34;;;;;;;12.98;7.38;;;;;;;3.34;58.87;102211.88;5096368;28;20039;-77
2024/01/24 07:14:29;;;;;;;12.67;6.50;;;;;;;3.40;58.88;102203.69;5083906;28;20043;-77
2024/01/24 07:17:21;;;;;;;37.72;9.82;;;;;;;3.30;59.05;102208.81;5082452;28;20055;-77
2024/01/24 07:20:15;;;;;;;21.35;7.65;;;;;;;3.69;58.35;102198.50;5091267;28;20059;-77
2024/01/24 07:23:13;;;;;;;22.27;9.07;;;;;;;3.48;59.08;102182.91;5092720;28;20051;-77
2024/01/24 07:26:07;;;;;;;22.73;9.15;;;;;;;3.53;58.71;102191.09;5096033;28;20118;-77
2024/01/24 07:29:00;;;;;;;33.25;9.52;;;;;;;3.23;59.45;102210.81;5094758;28;20051;-78
2024/01/24 07:31:54;;;;;;;37.65;14.63;;;;;;;3.35;58.91;102216.22;5092290;28;20524;-78
2024/01/24 07:34:49;;;;;;;25.05;11.10;;;;;;;3.36;58.83;102213.28;5095606;28;20067;-77
2024/01/24 07:37:44;;;;;;;23.20;8.23;;;;;;;3.33;59.22;102205.69;5093564;28;20047;-76
2024/01/24 07:40:38;;;;;;;25.95;9.02;;;;;;;3.38;58.92;102196.94;5094278;28;20051;-77
2024/01/24 07:43:32;;;;;;;21.85;6.45;;;;;;;3.54;58.84;102196.25;5082360;28;20043;-76
2024/01/24 07:46:27;;;;;;;24.20;8.55;;;;;;;3.79;58.44;102206.81;5086847;28;20059;-76
2024/01/24 07:49:16;;;;;;;22.10;8.35;;;;;;;4.08;57.67;102202.34;5096379;28;20051;-77
2024/01/24 07:52:11;;;;;;;25.75;11.02;;;;;;;3.91;57.39;102204.94;5093979;28;20524;-76
2024/01/24 07:55:06;;;;;;;19.15;8.82;;;;;;;4.11;57.13;102191.94;5097019;28;20063;-77
2024/01/24 07:58:01;;;;;;;30.33;7.93;;;;;;;4.02;58.86;102192.50;5091962;28;20114;-75
2024/01/24 08:00:55;;;;;;;15.33;6.80;;;;;;;3.92;59.82;102179.66;5087476;28;20055;-77
2024/01/24 08:03:50;;;;;;;18.92;7.20;;;;;;;4.01;58.85;102191.72;5094020;28;20059;-77
2024/01/24 08:06:44;;;;;;;19.13;7.50;;;;;;;4.20;58.25;102189.72;5090794;28;20047;-77
2024/01/24 08:09:40;;;;;;;18.58;5.68;;;;;;;4.32;57.71;102181.63;5097112;28;20047;-77
2024/01/24 08:12:34;;;;;;;30.23;6.53;;;;;;;3.99;58.92;102185.75;5094664;28;20051;-77
2024/01/24 08:15:27;;;;;;;16.15;6.57;;;;;;;4.17;58.35;102184.78;5092177;28;20047;-76
2024/01/24 08:18:21;;;;;;;17.48;5.38;;;;;;;4.49;57.62;102187.88;5092128;28;20504;-78
2024/01/24 08:21:18;;;;;;;28.30;8.02;;;;;;;4.51;57.82;102180.38;5086977;28;20513;-77
2024/01/24 08:24:12;;;;;;;12.30;6.35;;;;;;;4.61;55.88;102184.09;5089850;28;20043;-77
2024/01/24 08:27:07;;;;;;;15.63;5.30;;;;;;;4.68;55.68;102189.34;5089895;28;20046;-76
2024/01/24 08:30:02;;;;;;;20.50;7.93;;;;;;;4.92;55.76;102207.06;5092184;28;20051;-77
2024/01/24 08:32:57;;;;;;;20.05;5.93;;;;;;;5.02;56.32;102212.66;5098220;28;20055;-75
2024/01/24 08:35:49;;;;;;;11.75;6.45;;;;;;;5.06;54.72;102203.03;5093794;28;20051;-76
2024/01/24 08:38:43;;;;;;;15.40;7.00;;;;;;;5.14;54.66;102216.09;5092546;28;20044;-76
2024/01/24 08:41:38;;;;;;;14.52;6.45;;;;;;;5.14;56.02;102202.63;5097540;28;20044;-77
2024/01/24 08:44:32;;;;;;;9.00;4.82;;;;;;;5.25;56.77;102216.28;5096616;28;20054;-75
2024/01/24 08:47:27;;;;;;;19.17;5.85;;;;;;;5.36;58.15;102220.78;5099015;28;20516;-74
2024/01/24 08:50:22;;;;;;;17.20;5.80;;;;;;;5.63;58.85;102221.81;5102360;28;20047;-77
2024/01/24 08:53:14;;;;;;;16.70;8.07;;;;;;;5.79;58.47;102226.38;5099866;28;20635;-79
2024/01/24 08:56:09;;;;;;;13.90;6.17;;;;;;;5.82;58.53;102212.41;5102718;28;20051;-76
2024/01/24 08:59:01;;;;;;;19.23;8.43;;;;;;;5.99;58.72;102218.59;5100956;28;20039;-77
2024/01/24 09:01:55;;;;;;;19.27;7.93;;;;;;;6.01;59.16;102215.66;5104994;28;20055;-79
2024/01/24 09:04:50;;;;;;;12.30;6.05;;;;;;;6.04;59.65;102217.06;5101478;28;20054;-76
2024/01/24 09:07:42;;;;;;;14.93;6.53;;;;;;;6.16;59.47;102199.69;5099677;28;20412;-77
2024/01/24 09:10:37;;;;;;;17.77;9.32;;;;;;;6.25;59.62;102175.75;5101938;28;20404;-75
2024/01/24 09:13:32;;;;;;;15.30;6.83;;;;;;;6.42;60.00;102188.16;5101765;28;20523;-77
2024/01/24 09:16:26;;;;;;;28.20;14.43;;;;;;;6.44;60.22;102186.03;5104462;28;20273;-79
2024/01/24 09:19:24;;;;;;;23.58;10.30;;;;;;;6.49;60.14;102190.69;5095982;28;20058;-75
2024/01/24 09:22:18;;;;;;;16.48;10.07;;;;;;;6.49;60.87;102195.25;5096904;28;20047;-75
2024/01/24 09:25:11;;;;;;;16.00;8.93;;;;;;;6.65;60.60;102203.31;5099067;28;20531;-76
2024/01/24 09:28:05;;;;;;;20.45;10.85;;;;;;;6.71;61.33;102212.25;5097402;28;20043;-76
2024/01/24 09:31:00;;;;;;;19.97;10.10;;;;;;;6.74;61.58;102209.06;5097734;28;20535;-77
2024/01/24 09:33:55;;;;;;;17.15;10.27;;;;;;;6.81;61.85;102199.69;5095026;28;20058;-74
2024/01/24 09:36:48;;;;;;;24.70;10.88;;;;;;;7.00;61.11;102188.53;5093705;28;20409;-78
2024/01/24 09:39:39;;;;;;;22.38;11.13;;;;;;;7.06;61.24;102198.34;5098647;28;20063;-76
2024/01/24 09:42:33;;;;;;;21.08;10.07;;;;;;;7.22;61.33;102189.28;5094482;28;20523;-77
2024/01/24 09:45:28;;;;;;;17.67;10.68;;;;;;;7.80;60.12;102182.19;5093367;28;20039;-75
2024/01/24 09:48:23;;;;;;;16.80;9.65;;;;;;;7.55;60.49;102175.50;5097082;28;20047;-75
2024/01/24 09:51:23;;;;;;;14.53;9.37;;;;;;;7.70;61.21;102186.47;5088138;28;20063;-75
2024/01/24 09:54:18;;;;;;;18.75;11.57;;;;;;;7.86;61.19;102178.44;5098191;28;20051;-76
2024/01/24 09:57:12;;;;;;;17.53;11.13;;;;;;;8.03;60.07;102170.94;5086570;28;20047;-75
2024/01/24 10:00:07;;;;;;;15.98;9.82;;;;;;;8.08;58.55;102160.94;5099239;28;20047;-76
2024/01/24 10:03:04;;;;;;;17.42;10.20;;;;;;;8.20;58.37;102158.03;5096579;28;20102;-77
2024/01/24 10:06:00;;;;;;;20.33;11.40;;;;;;;8.36;58.97;102169.81;5093943;28;20752;-77
2024/01/24 10:08:52;;;;;;;;;;;;;;;8.59;58.74;102159.31;5098413;28;20055;-77
2024/01/24 10:11:49;;;;;;;26.33;12.73;;;;;;;8.77;57.56;102146.34;5093211;28;19912;-76
2024/01/24 10:14:44;;;;;;;23.52;12.63;;;;;;;9.05;56.49;102147.75;5090931;28;20039;-76
2024/01/24 10:17:41;;;;;;;23.60;12.73;;;;;;;9.24;55.52;102144.25;5091576;28;20036;-76
2024/01/24 10:20:35;;;;;;;25.58;14.45;;;;;;;9.43;53.93;102134.47;5089493;28;20059;-76
2024/01/24 10:23:28;;;;;;;28.67;13.93;;;;;;;9.62;53.29;102132.00;5089011;28;20039;-76
2024/01/24 10:26:25;;;;;;;29.58;14.60;;;;;;;9.76;52.36;102124.91;5093516;28;20047;-76
2024/01/24 10:29:20;;;;;;;25.13;13.00;;;;;;;9.76;50.82;102127.63;5098726;28;20417;-76
2024/01/24 10:32:14;;;;;;;23.45;13.43;;;;;;;10.18;50.74;102119.09;5095852;28;20043;-77
2024/01/24 10:35:10;;;;;;;22.13;12.07;;;;;;;10.21;48.86;102123.16;5092144;28;20500;-76
2024/01/24 10:38:02;;;;;;;;;;;;;;;10.61;47.64;102122.19;5097381;28;20504;-78
2024/01/24 10:40:53;;;;;;;27.20;15.73;;;;;;;10.52;46.95;102113.78;5094649;28;20296;-76
2024/01/24 10:43:52;;;;;;;31.55;15.05;;;;;;;10.80;46.69;102117.69;5092522;28;20035;-75
2024/01/24 10:46:48;;;;;;;26.02;15.27;;;;;;;11.08;46.04;102113.41;5094432;28;20032;-76
2024/01/24 10:49:43;;;;;;;33.67;17.92;;;;;;;11.28;45.04;102096.91;5093609;28;20044;-76
2024/01/24 10:52:36;;;;;;;;;;;;;;;10.94;44.45;102106.97;5092863;28;20311;-76
2024/01/24 10:55:30;;;;;;;25.85;15.80;;;;;;;11.39;43.70;102100.34;5094121;28;19912;-76
2024/01/24 10:58:25;;;;;;;32.33;17.25;;;;;;;11.44;43.74;102108.47;5076993;28;20032;-76
2024/01/24 11:01:19;;;;;;;37.40;20.30;;;;;;;11.11;44.73;102099.25;5095758;28;20035;-76
2024/01/24 11:04:15;;;;;;;28.77;18.43;;;;;;;11.39;45.26;102084.00;5093259;28;20036;-78
2024/01/24 11:07:10;;;;;;;34.80;18.65;;;;;;;11.30;45.25;102077.56;5088633;28;20286;-77
2024/01/24 11:10:42;;;;;;;30.60;18.02;;;;;;;11.33;45.09;102076.97;5091762;28;20531;-76
2024/01/24 11:13:39;;;;;;;32.25;17.58;;;;;;;11.59;45.01;102073.72;4970214;28;20046;-77
2024/01/24 11:16:34;;;;;;;51.97;26.65;;;;;;;11.48;45.10;102063.19;4972198;28;20066;-78
2024/01/24 11:19:29;;;;;;;44.25;23.27;;;;;;;11.76;44.48;102054.22;5097186;28;20028;-77
2024/01/24 11:22:25;;;;;;;40.95;23.55;;;;;;;11.88;43.54;102053.81;5094836;28;20040;-79
2024/01/24 11:25:34;;;;;;;;;;;;;;;11.65;43.66;102049.13;5087770;28;20039;-78
2024/01/24 11:28:30;;;;;;;36.42;19.80;;;;;;;12.31;42.65;102044.53;5088352;28;19920;-77
2024/01/24 11:31:40;;;;;;;36.80;14.95;;;;;;;12.17;42.06;102029.19;5089664;28;20036;-76
2024/01/24 11:34:40;;;;;;;38.45;19.05;;;;;;;11.59;42.59;102024.69;5089728;28;20040;-76
2024/01/24 11:37:35;;;;;;;25.47;16.87;;;;;;;11.82;42.95;102023.09;5091329;28;20032;-76
2024/01/24 11:40:34;;;;;;;35.95;20.58;;;;;;;12.21;43.97;102011.94;5096317;28;20048;-76
2024/01/24 11:43:31;;;;;;;37.08;20.95;;;;;;;12.28;43.09;102019.75;5093572;28;20028;-75
2024/01/24 11:46:26;;;;;;;33.85;19.67;;;;;;;12.34;43.14;102011.19;5094420;28;20043;-76
2024/01/24 11:49:20;;;;;;;;;;;;;;;12.71;42.83;102015.81;5094840;28;20044;-76
2024/01/24 11:52:14;;;;;;;34.83;20.85;;;;;;;12.64;43.13;102007.22;5092149;28;19912;-76
2024/01/24 11:55:10;;;;;;;49.33;23.38;;;;;;;12.79;42.59;101990.59;5095381;28;20036;-78
2024/01/24 11:58:02;;;;;;;34.65;19.77;;;;;;;12.50;41.85;101987.22;5090133;28;20028;-78
2024/01/24 12:00:55;;;;;;;38.40;21.67;;;;;;;12.68;42.12;101991.84;5094874;28;20584;-78
2024/01/24 12:03:53;;;;;;;44.35;20.77;;;;;;;12.89;41.52;101983.31;5089044;28;20532;-78
2024/01/24 12:06:47;;;;;;;39.85;21.95;;;;;;;12.81;41.46;101974.69;5091745;28;20044;-78
2024/01/24 12:09:39;;;;;;;36.67;20.95;;;;;;;13.18;41.32;101968.34;5095514;28;20052;-78
2024/01/24 12:12:29;;;;;;;37.00;20.58;;;;;;;13.10;40.21;101960.00;5089323;28;20040;-78
2024/01/24 12:15:22;;;;;;;31.73;20.45;;;;;;;13.17;40.14;101961.25;5090723;28;20062;-79
2024/01/24 12:18:16;;;;;;;36.33;21.42;;;;;;;13.12;40.21;101963.25;5092424;28;20036;-80
2024/01/24 12:21:10;;;;;;;30.70;19.63;;;;;;;12.88;39.79;101957.13;5089980;28;20032;-77
2024/01/24 12:24:03;;;;;;;34.87;19.47;;;;;;;13.06;40.19;101956.22;5092354;28;20036;-77
2024/01/24 12:26:55;;;;;;;36.65;20.73;;;;;;;13.21;39.94;101950.53;5089250;28;20798;-77
2024/01/24 12:29:54;;;;;;;35.10;21.33;;;;;;;13.25;40.68;101938.72;5088640;28;20036;-76
2024/01/24 12:32:49;;;;;;;33.78;20.23;;;;;;;13.51;39.60;101938.97;5094636;28;20040;-77
2024/01/24 12:35:51;;;;;;;26.65;17.30;;;;;;;13.42;39.88;101951.75;5091966;28;20048;-76
2024/01/24 12:38:43;;;;;;;37.10;20.45;;;;;;;13.61;40.33;101935.25;5095999;28;20036;-80
2024/01/24 12:41:38;;;;;;;31.57;18.83;;;;;;;13.83;38.61;101923.56;5093492;28;20476;-77
2024/01/24 12:44:33;;;;;;;32.30;19.33;;;;;;;13.66;38.51;101935.94;5090375;28;20048;-79
2024/01/24 12:47:28;;;;;;;34.95;22.02;;;;;;;13.44;39.18;101921.38;5092714;28;20032;-76
2024/01/24 12:50:23;;;;;;;48.42;19.30;;;;;;;13.43;39.47;101920.59;5095108;28;20517;-76
2024/01/24 12:53:17;;;;;;;34.33;20.97;;;;;;;13.46;39.32;101922.69;5099159;28;20048;-78
2024/01/24 12:56:07;;;;;;;33.50;20.48;;;;;;;13.73;38.88;101912.84;5093634;28;20059;-75
2024/01/24 12:59:07;;;;;;;38.22;20.92;;;;;;;13.65;38.98;101904.25;5094654;28;20036;-79
2024/01/24 13:02:02;;;;;;;32.47;19.48;;;;;;;13.64;38.72;101901.81;5098245;28;20040;-79
2024/01/24 13:04:57;;;;;;;35.05;21.50;;;;;;;13.67;38.91;101902.00;5095871;28;20048;-78
2024/01/24 13:07:46;;;;;;;35.50;21.20;;;;;;;13.48;39.64;101887.69;5099726;28;20040;-78
2024/01/24 13:10:42;;;;;;;42.35;23.02;;;;;;;13.43;40.18;101890.53;5097501;28;20779;-78
2024/01/24 13:13:35;;;;;;;40.47;22.45;;;;;;;13.76;40.34;101885.72;5094701;28;20055;-79
2024/01/24 13:16:29;;;;;;;29.13;18.60;;;;;;;13.97;39.57;101883.28;5097164;28;20048;-78
2024/01/24 13:19:21;;;;;;;42.47;19.37;;;;;;;13.65;40.80;101889.78;5096765;28;20270;-75
2024/01/24 13:22:16;;;;;;;51.35;24.52;;;;;;;13.96;40.20;101874.31;5094185;28;20778;-78
2024/01/24 13:25:10;;;;;;;35.10;23.10;;;;;;;13.92;40.32;101872.47;5097736;28;20036;-74
2024/01/24 13:28:02;;;;;;;35.83;20.77;;;;;;;13.96;39.79;101868.03;5091961;28;20048;-78